Relevés horaires St-Hubert (Belgique)


Relevés horaires à St-Hubert - Mardi 30 Juin 2020
Heure UTC1 Température [°C] Vent [km/h] Hum. [%] Pres.4 [hPa] Visi. [Km] Nébu. [octa] Préc.5 [mm] Cond.
2m. Res. Ros. Dir.2 Vit. Moy. Raf.3
23:00 14.2 14 11.7 SO 7.4 7.4 14.8 85 1010.8(-0.3/3h) 45 1/8 -- --
22:00 14.4 14.3 11.8 SO 7.4 7.4 14.8 84 1011.1(0.1/3h) 45 4/8 -- --
21:00 15.1 15.1 11.8 SSO 7.4 9.3 16.7 81 1010.9(0.1/3h) 45 8/8 -- --
20:00 15.3 15.3 11.6 SO 7.4 9.3 14.8 79 1010.9(-0.2/3h) 45 8/8 -- --
19:00 15.5 15.3 11.4 SSO 9.3 9.3 16.7 77 1010.9(-0.3/3h) 45 8/8 -- --
18:00 15.6 15.6 11.3 SO 7.4 11.1 20.4 76 1010.9(-0.7/3h) 45 8/8 0/12h
--
17:00 15.7 15.5 11.3 SO 9.3 11.1 18.5 75 1011(-0.8/3h) 45 8/8 -- --
16:00 15.6 15.4 10.6 SO 9.3 11.1 18.5 72 1011.2(-0.7/3h) 40 8/8 -- --
15:00 15.9 15.8 10.9 SO 9.3 11.1 20.4 72 1011.6(-0.4/3h) 35 8/8 -- --
14:00 16.0 16.0 11.0 SSO 7.4 11.1 18.5 72 1011.7(-0.5/3h) 30 7/8 -- --
13:00 15.7 15.5 10.1 SO 9.3 11.1 18.5 69 1011.9(-0.5/3h) 40 8/8 -- --
12:00 15.4 15 10.0 SO 11.1 11.1 16.7 70 1012.1(-0.4/3h) 35 8/8 0/6h
--
11:00 14.3 13.9 9.8 SO 9.3 9.3 16.7 74 1012.6(-0.2/3h) 35 8/8 -- --
10:00 12.2 11.7 8.7 SSO 7.4 9.3 14.8 79 1013.3(0.1/3h) 27 8/8 -- --
09:00 11.4 10.8 8.4 SO 7.4 7.4 14.8 82 1013.5(0.2/3h) 30 8/8 -- --
08:00 11.1 10.4 7.7 SO 7.4 7.4 14.8 80 1013.6(-0.1/3h) 35 8/8 -- --
07:00 10.9 10.6 7.1 SO 5.6 5.6 9.3 77 1013.6(0.0/3h) 40 8/8 -- --
06:00 10.4 10.4 7.4 OSO 3.7 5.6 9.3 82 1013.5(-0.2/3h) 40 8/8 0/12h
--
05:00 9.4 9.4 7.1 OSO 3.7 5.6 9.3 86 1013.9(0.0/3h) 35 8/8 -- --
04:00 9.2 8.7 6.5 OSO 5.6 5.6 9.3 83 1014.1(0.0/3h) 40 8/8 -- --
03:00 8.8 8.8 6.4 SO 3.7 3.7 7.4 85 1014.2(-0.3/3h) 35 8/8 -- --
02:00 8.6 8.6 5.9 SO 1.9 3.7 5.6 83 1014.2(-0.7/3h) 35 8/8 -- --
01:00 7.9 7.9 6.1 SO 3.7 3.7 5.6 88 1014.3(-0.8/3h) 40 7/8 -- --
00:00 7.5 7.5 4.9 SSO 3.7 9.3 20.4 84 1014.8(-0.4/3h) 40 0/8 0/6h
0/24h
--

1 Coordinated Universal Time. Actuellement il est 07:00 locale et 05:00 UTC.

2 Le vent souffle depuis la direction indiquée vers la direction oposée.

3 Les rafales max. sont disponible 40 min après l'heure du relevé.

4 Pour les stations d'altitude (plus de 600m) le géopotentiel du niveau le plus proche de la pression obligatoire est indiqué.

5 Les stations disposant d'un diffuseur peuvent indiquer "trace". Cela signifie que des précipitations ont touchés le sol mais que la quantité est inférieure à 0.1 mm.

Récapitulatif de la journée
Température [°C] Vent [km/h] Ensoleillement4 [h] Precipitations totale5 [mm] Pression [Hpa]
Min1 Max.2 Moy.3 Max. Min Max.
7.0 16.5 8.2 20.4 0 h 0 min 0 1010.8 1014.8

1 Température minimale relevée entre 18:00 UTC la veille et 18:00 UTC le jour donné.

2 Température maximale relevée entre 06:00 UTC le jour donné et 06:00 UTC le lendemain.

3 Vent moyen de la journée basé sur les relevés horaires.

4 Ensoleillement en heures relevé entre 06:00 UTC la veille et 06:00 UTC le jour donné.

5 Précipitations totales tombées entre 06:00 UTC la jour donné et 06:00 UTC le lendemain.

Graphiques horaires